Terminal Aerodrome Forecast
Issued by NWS Sterling, VA

Current Version | Previous Version | Text Only | Print | Product List | Glossary On
Versions: 1 2 3 4 5 6 7 8 9 10 11 12 13 14 15 16 17 18 19 20 21 22 23 24 25 26 27 28
000
FTUS41 KLWX 262300
TAFBWI
TAF
KBWI 262336Z 2700/2806 03012KT 5SM -SN BR OVC010
     FM270600 35008KT 2SM -SN BR OVC015
     FM271200 33012G20KT 3SM -SHSN BR OVC008
     FM271400 33012G20KT P6SM OVC015
     FM271800 32012G20KT P6SM OVC025
     FM272000 31013G21KT P6SM BKN045
     FM280200 32014KT P6SM SCT060=

USA.gov is the U.S. government's official web portal to all federal, state and local government web resources and services.